Columbus (CMH/KCMH)

Map

Destinations

Information

Location
Columbus, OH
Local Time
01:35 / 1:35 am
GMT Time
06:35 / 6:35 am
Gates
Unassigned
No FAA reported delays
METAR KCMH 220551Z 00000KT 9SM OVC070 13/12 A2995 RMK AO2 RAE27 SLP140 P0001 60004 T01280122 10167 20128 58012
TAF KCMH 220539Z 2206/2306 00000KT P6SM VCSH OVC080 FM220900 00000KT 3SM BR OVC015 FM221400 VRB03KT 5SM BR OVC008 FM221600 VRB03KT P6SM BKN008 FM221800 20004KT P6SM BKN015 FM230300 VRB03KT P6SM BKN008
  • No charts available